Time;durP1;ratioP1;P1;durP2;ratioP2;P2;SDS_P1;SDS_P2;PMS_P1;PMS_P2;Temp;Humidity;BMP_temperature;BMP_pressure;BME280_temperature;BME280_humidity;BME280_pressure;Samples;Min_cycle;Max_cycle;Signal;HPM_P1;HPM_P2
2023/08/16 04:01:58;;;;;;;2.00;1.87;;;17.00;99.90;;;;;;5264706;23;20546;-72
2023/08/16 04:04:25;;;;;;;2.20;2.00;;;17.00;99.90;;;;;;4954254;29;20503;-72
2023/08/16 04:06:52;;;;;;;1.80;1.80;;;17.00;99.90;;;;;;4954298;29;20479;-72
2023/08/16 04:09:19;;;;;;;1.60;1.60;;;17.00;99.90;;;;;;4952614;29;20568;-71
2023/08/16 04:11:45;;;;;;;3.30;2.50;;;16.90;99.90;;;;;;4940968;29;21008;-72
2023/08/16 04:14:12;;;;;;;2.33;2.23;;;16.90;99.90;;;;;;4934254;29;20469;-69
2023/08/16 04:16:39;;;;;;;3.13;2.17;;;16.90;99.90;;;;;;4933414;29;20481;-70
2023/08/16 04:19:07;;;;;;;6.10;2.13;;;16.90;99.90;;;;;;4934817;29;20477;-69
2023/08/16 04:21:33;;;;;;;4.33;2.43;;;16.90;99.90;;;;;;4932933;29;20481;-69
2023/08/16 04:24:00;;;;;;;7.40;2.93;;;16.90;99.90;;;;;;4932829;29;20480;-69
2023/08/16 04:26:27;;;;;;;2.40;2.20;;;16.90;99.90;;;;;;4931567;29;20574;-71
2023/08/16 04:28:54;;;;;;;2.40;2.20;;;16.80;99.90;;;;;;4932976;29;21044;-69
2023/08/16 04:31:20;;;;;;;2.93;2.13;;;16.80;99.90;;;;;;4931469;29;20493;-70
2023/08/16 04:33:49;;;;;;;1.60;1.50;;;16.80;99.90;;;;;;4929283;29;20477;-71
2023/08/16 04:36:17;;;;;;;2.27;2.17;;;16.80;99.90;;;;;;4934170;29;20470;-70
2023/08/16 04:38:44;;;;;;;2.17;2.13;;;16.80;99.90;;;;;;4933541;29;20555;-74
2023/08/16 04:41:10;;;;;;;4.43;1.37;;;16.80;99.90;;;;;;4932994;29;20494;-70
2023/08/16 04:43:37;;;;;;;2.70;1.57;;;16.80;99.90;;;;;;4932444;29;20489;-70
2023/08/16 04:46:04;;;;;;;1.90;1.47;;;16.80;99.90;;;;;;4932694;29;20995;-71
2023/08/16 04:48:31;;;;;;;3.40;2.17;;;16.90;99.90;;;;;;4933087;29;20480;-70
2023/08/16 04:50:57;;;;;;;9.30;2.83;;;17.10;99.90;;;;;;4933138;29;21036;-69
2023/08/16 04:53:25;;;;;;;3.03;2.40;;;17.40;99.90;;;;;;4932361;29;20489;-70
2023/08/16 04:55:52;;;;;;;2.07;2.07;;;17.70;99.90;;;;;;4932726;29;20477;-70
2023/08/16 04:58:19;;;;;;;2.50;2.30;;;17.80;99.90;;;;;;4927672;29;20471;-69
2023/08/16 05:00:45;;;;;;;2.67;2.33;;;17.90;99.90;;;;;;4934182;29;20502;-69
2023/08/16 05:03:13;;;;;;;2.70;2.60;;;18.10;99.90;;;;;;4930945;29;20486;-71
2023/08/16 05:05:39;;;;;;;1.80;1.70;;;18.20;99.90;;;;;;4930955;29;20500;-69
2023/08/16 05:08:06;;;;;;;1.93;1.73;;;18.30;99.90;;;;;;4933412;29;20475;-71
2023/08/16 05:10:34;;;;;;;1.90;1.90;;;18.30;99.90;;;;;;4932338;29;20496;-69
2023/08/16 05:13:01;;;;;;;2.13;2.03;;;18.30;99.90;;;;;;4932168;29;20500;-69
2023/08/16 05:15:28;;;;;;;1.60;1.60;;;18.20;99.90;;;;;;4941335;29;20472;-69
2023/08/16 05:17:54;;;;;;;3.20;2.27;;;18.20;99.90;;;;;;4937255;29;20481;-70
2023/08/16 05:20:21;;;;;;;1.80;1.70;;;18.10;99.90;;;;;;4932158;29;20470;-69
2023/08/16 05:22:48;;;;;;;2.27;2.17;;;18.10;99.90;;;;;;4932951;29;20817;-69
2023/08/16 05:25:14;;;;;;;2.00;1.90;;;18.20;99.90;;;;;;4929083;29;20479;-71
2023/08/16 05:27:42;;;;;;;2.30;2.07;;;18.20;99.90;;;;;;4931983;29;20486;-69
2023/08/16 05:30:10;;;;;;;2.03;1.93;;;18.30;99.90;;;;;;4931038;29;20470;-68
2023/08/16 05:32:37;;;;;;;1.70;1.70;;;18.20;99.90;;;;;;4932645;29;20494;-69
2023/08/16 05:35:04;;;;;;;2.40;2.20;;;18.10;99.90;;;;;;4927746;29;20510;-69
2023/08/16 05:37:31;;;;;;;1.80;1.70;;;17.90;99.90;;;;;;4934481;29;20479;-70
2023/08/16 05:39:57;;;;;;;2.00;1.60;;;17.90;99.90;;;;;;4939191;29;20467;-69
2023/08/16 05:42:26;;;;;;;1.63;1.63;;;17.90;99.90;;;;;;4936327;29;21025;-68
2023/08/16 05:44:54;;;;;;;1.63;1.53;;;17.90;99.90;;;;;;4940630;29;20473;-69
2023/08/16 05:47:20;;;;;;;2.40;2.27;;;17.90;99.90;;;;;;4940509;29;20477;-68
2023/08/16 05:49:47;;;;;;;4.27;1.80;;;18.00;99.90;;;;;;4944469;29;20477;-70
2023/08/16 05:52:14;;;;;;;2.70;2.50;;;18.10;99.90;;;;;;4948375;29;20468;-68
2023/08/16 05:54:41;;;;;;;2.00;2.00;;;18.20;99.90;;;;;;4939236;29;20226;-69
2023/08/16 05:57:07;;;;;;;5.80;2.00;;;18.30;99.90;;;;;;4937389;29;20470;-71
2023/08/16 05:59:34;;;;;;;2.47;2.37;;;18.30;99.90;;;;;;4934052;29;20478;-70
2023/08/16 06:02:02;;;;;;;2.23;2.13;;;18.30;99.90;;;;;;4929160;29;20499;-70
2023/08/16 06:04:29;;;;;;;3.03;2.53;;;18.30;99.90;;;;;;4928268;29;21034;-70
2023/08/16 06:06:56;;;;;;;1.97;1.87;;;18.30;99.90;;;;;;4935146;29;20498;-70
2023/08/16 06:09:22;;;;;;;2.97;2.50;;;18.30;99.90;;;;;;4935845;29;20851;-73
2023/08/16 06:11:50;;;;;;;1.70;1.60;;;18.20;99.90;;;;;;4935235;29;20491;-70
2023/08/16 06:14:16;;;;;;;3.73;2.23;;;18.20;99.90;;;;;;4931811;29;20479;-71
2023/08/16 06:16:43;;;;;;;2.30;2.13;;;18.20;99.90;;;;;;4935187;29;20493;-70
2023/08/16 06:19:13;;;;;;;2.40;2.20;;;18.30;99.90;;;;;;4936890;29;20462;-72
2023/08/16 06:21:40;;;;;;;3.07;2.50;;;18.30;99.90;;;;;;4936389;29;20518;-71
2023/08/16 06:24:08;;;;;;;4.57;2.40;;;18.40;99.90;;;;;;4934796;29;20571;-70
2023/08/16 06:26:35;;;;;;;3.33;3.23;;;18.80;99.90;;;;;;4935168;29;20535;-69
2023/08/16 06:29:01;;;;;;;2.63;1.90;;;19.40;99.90;;;;;;4937022;29;20476;-69
2023/08/16 06:31:28;;;;;;;3.17;2.30;;;19.60;99.90;;;;;;4935652;29;20907;-71
2023/08/16 06:33:55;;;;;;;1.93;1.90;;;19.60;99.90;;;;;;4935720;29;20504;-69
2023/08/16 06:36:24;;;;;;;3.13;2.00;;;19.80;99.90;;;;;;4936983;29;20496;-69
2023/08/16 06:38:51;;;;;;;3.17;2.83;;;19.90;99.90;;;;;;4936439;29;20477;-69
2023/08/16 06:41:17;;;;;;;2.93;2.83;;;20.40;99.90;;;;;;4936677;29;20503;-69
2023/08/16 06:43:44;;;;;;;1.43;1.43;;;21.10;99.90;;;;;;4935718;29;20472;-68
2023/08/16 06:46:11;;;;;;;2.17;1.97;;;21.80;99.90;;;;;;4934505;29;20526;-69
2023/08/16 06:48:38;;;;;;;1.67;1.67;;;22.20;99.90;;;;;;4934936;29;20493;-67
2023/08/16 06:51:05;;;;;;;2.10;2.03;;;22.40;99.90;;;;;;4936931;29;20570;-67
2023/08/16 06:53:33;;;;;;;2.53;2.03;;;22.60;99.90;;;;;;4933854;29;20493;-67
2023/08/16 06:56:00;;;;;;;2.07;1.97;;;22.60;99.90;;;;;;4935743;29;20871;-68
2023/08/16 06:58:27;;;;;;;1.80;1.80;;;22.40;99.90;;;;;;4935847;29;20525;-70
2023/08/16 07:00:55;;;;;;;2.43;1.47;;;22.20;99.90;;;;;;4936325;29;20492;-70
2023/08/16 07:03:21;;;;;;;2.57;1.60;;;21.90;99.90;;;;;;4935444;29;20499;-67
2023/08/16 07:05:48;;;;;;;1.33;1.23;;;21.70;99.90;;;;;;4934581;29;20483;-68
2023/08/16 07:08:15;;;;;;;1.63;1.53;;;21.80;99.90;;;;;;4934646;29;20503;-70
2023/08/16 07:10:44;;;;;;;4.17;1.60;;;22.00;99.90;;;;;;4934358;29;20490;-69
2023/08/16 07:13:11;;;;;;;2.27;2.17;;;22.00;99.90;;;;;;4933864;29;20498;-67
2023/08/16 07:15:37;;;;;;;1.13;1.13;;;22.00;99.90;;;;;;4935758;29;20475;-74
2023/08/16 07:18:05;;;;;;;3.53;1.60;;;21.70;99.90;;;;;;4934812;29;20963;-69
2023/08/16 07:20:32;;;;;;;1.30;1.20;;;21.60;99.90;;;;;;4935175;29;20465;-71
2023/08/16 07:22:59;;;;;;;1.60;1.57;;;21.40;99.90;;;;;;4931190;29;20610;-69
2023/08/16 07:25:27;;;;;;;3.03;1.60;;;21.20;99.90;;;;;;4935095;29;20551;-67
2023/08/16 07:27:56;;;;;;;1.57;1.50;;;21.10;99.90;;;;;;4934917;29;20500;-70
2023/08/16 07:30:22;;;;;;;1.40;1.40;;;21.00;99.90;;;;;;4935826;29;20484;-69
2023/08/16 07:32:49;;;;;;;2.20;2.10;;;20.90;99.90;;;;;;4935037;29;20491;-69
2023/08/16 07:35:16;;;;;;;1.57;1.57;;;20.90;99.90;;;;;;4934837;29;20478;-70
2023/08/16 07:37:43;;;;;;;2.30;2.10;;;21.10;99.90;;;;;;4935815;29;20516;-69
2023/08/16 07:40:11;;;;;;;2.20;1.60;;;21.30;99.90;;;;;;4933994;29;20477;-70
2023/08/16 07:42:38;;;;;;;2.20;1.90;;;21.60;99.90;;;;;;4936201;29;20465;-70
2023/08/16 07:45:06;;;;;;;2.93;1.87;;;21.90;99.90;;;;;;4935756;29;20458;-70
2023/08/16 07:47:33;;;;;;;1.77;1.67;;;21.80;99.90;;;;;;4927160;29;20481;-68
2023/08/16 07:49:59;;;;;;;1.53;1.53;;;21.60;99.90;;;;;;4932229;29;20555;-67
2023/08/16 07:52:26;;;;;;;1.57;1.47;;;21.30;99.90;;;;;;4933508;29;20489;-68
2023/08/16 07:54:53;;;;;;;2.13;1.93;;;21.10;99.90;;;;;;4933485;29;20469;-70
2023/08/16 07:57:20;;;;;;;1.93;1.80;;;20.80;99.90;;;;;;4934263;29;20831;-69
2023/08/16 07:59:46;;;;;;;1.60;1.50;;;20.60;99.90;;;;;;4935685;29;20467;-69
2023/08/16 08:02:14;;;;;;;5.77;2.07;;;20.70;99.90;;;;;;4951410;28;20496;-70
2023/08/16 08:04:41;;;;;;;2.33;2.10;;;20.70;99.90;;;;;;4943396;29;20474;-69
2023/08/16 08:07:08;;;;;;;1.90;1.50;;;20.80;99.90;;;;;;4931218;29;20486;-73
2023/08/16 08:09:34;;;;;;;1.30;1.30;;;20.80;99.90;;;;;;4933475;29;20471;-69
2023/08/16 08:12:01;;;;;;;1.53;1.40;;;20.60;99.90;;;;;;4940923;29;20525;-70
2023/08/16 08:14:28;;;;;;;3.90;1.03;;;20.50;99.90;;;;;;4936708;29;20493;-70
2023/08/16 08:16:56;;;;;;;1.80;1.80;;;20.50;99.90;;;;;;4934956;29;20574;-69
2023/08/16 08:19:24;;;;;;;1.30;1.20;;;20.50;99.90;;;;;;4941966;29;20481;-70
2023/08/16 08:21:51;;;;;;;1.60;1.43;;;20.60;99.90;;;;;;4935492;29;21244;-69
2023/08/16 08:24:18;;;;;;;1.73;1.63;;;20.60;99.90;;;;;;4934696;29;20466;-71
2023/08/16 08:26:45;;;;;;;5.30;1.70;;;20.70;99.90;;;;;;4943415;29;20460;-69
2023/08/16 08:29:12;;;;;;;1.40;1.27;;;20.80;99.90;;;;;;4941554;29;20478;-70
2023/08/16 08:31:38;;;;;;;1.63;1.50;;;20.90;99.90;;;;;;4949006;28;20576;-70
2023/08/16 08:34:05;;;;;;;1.73;1.47;;;20.80;99.90;;;;;;4934645;29;20501;-70
2023/08/16 08:36:33;;;;;;;0.90;0.90;;;20.70;99.90;;;;;;4943396;29;20501;-71
2023/08/16 08:39:00;;;;;;;4.37;2.00;;;20.70;99.90;;;;;;4930651;29;20504;-72
2023/08/16 08:41:27;;;;;;;1.43;1.00;;;20.60;99.90;;;;;;4942606;29;20515;-70
2023/08/16 08:43:55;;;;;;;1.40;1.40;;;20.60;99.90;;;;;;4954871;29;20461;-71
2023/08/16 08:46:22;;;;;;;0.97;0.97;;;20.60;99.90;;;;;;4954477;29;20460;-71
2023/08/16 08:48:49;;;;;;;2.83;1.40;;;20.60;99.90;;;;;;4942348;29;20466;-70
2023/08/16 08:51:16;;;;;;;1.53;1.40;;;20.70;99.90;;;;;;4943469;28;20484;-70
2023/08/16 08:53:44;;;;;;;1.70;1.60;;;20.80;99.90;;;;;;4939789;29;20583;-70
2023/08/16 08:56:14;;;;;;;1.27;1.27;;;20.80;99.90;;;;;;4948424;29;20463;-69
2023/08/16 08:58:41;;;;;;;2.67;1.80;;;20.80;99.90;;;;;;4928802;29;20473;-70
2023/08/16 09:01:10;;;;;;;1.73;1.43;;;20.90;99.90;;;;;;4931439;29;20540;-70
2023/08/16 09:03:37;;;;;;;2.40;0.90;;;20.90;99.90;;;;;;4934994;29;20957;-69
2023/08/16 09:06:05;;;;;;;2.30;1.10;;;21.00;99.90;;;;;;4935249;29;20475;-69
2023/08/16 09:08:36;;;;;;;2.60;1.40;;;21.10;99.90;;;;;;4935049;29;20466;-69
2023/08/16 09:11:04;;;;;;;0.90;0.90;;;21.10;99.90;;;;;;4934958;29;20484;-69
2023/08/16 09:13:31;;;;;;;2.10;1.30;;;21.00;99.90;;;;;;4931118;29;20500;-69
2023/08/16 09:16:00;;;;;;;1.90;1.10;;;20.90;99.90;;;;;;4934366;29;20508;-69
2023/08/16 09:18:28;;;;;;;3.30;3.20;;;21.00;99.90;;;;;;4934452;29;20976;-69
2023/08/16 09:20:55;;;;;;;2.83;1.03;;;21.10;99.90;;;;;;4926540;29;20491;-69
2023/08/16 09:23:22;;;;;;;1.60;1.33;;;21.30;99.90;;;;;;4933855;29;20468;-69
2023/08/16 09:25:50;;;;;;;2.93;1.10;;;21.40;99.90;;;;;;4933332;29;20987;-71
2023/08/16 09:28:20;;;;;;;1.13;1.13;;;21.50;99.90;;;;;;4929902;29;20476;-69
2023/08/16 09:30:47;;;;;;;1.40;1.30;;;21.60;99.90;;;;;;4926152;29;20487;-69
2023/08/16 09:33:14;;;;;;;1.50;0.97;;;21.70;99.90;;;;;;4933712;29;20496;-69
2023/08/16 09:35:45;;;;;;;1.10;1.10;;;21.70;99.90;;;;;;4933375;29;20568;-70
2023/08/16 09:38:14;;;;;;;1.27;0.80;;;21.80;99.90;;;;;;4933815;29;20508;-69
2023/08/16 09:40:48;;;;;;;1.73;1.07;;;22.00;99.90;;;;;;4933059;29;20496;-70
2023/08/16 09:43:15;;;;;;;1.17;1.10;;;22.10;99.90;;;;;;4933740;29;20497;-70
2023/08/16 09:45:44;;;;;;;1.23;1.23;;;22.20;99.90;;;;;;4933108;29;20476;-71
2023/08/16 09:48:11;;;;;;;3.50;1.30;;;22.30;99.90;;;;;;4932880;29;20473;-69
2023/08/16 09:50:37;;;;;;;0.93;0.93;;;22.40;99.90;;;;;;4932374;29;20485;-72
2023/08/16 09:53:04;;;;;;;1.00;1.00;;;22.40;99.90;;;;;;4932447;29;20470;-71
2023/08/16 09:55:33;;;;;;;2.37;1.37;;;22.50;99.90;;;;;;4933810;29;20963;-72
2023/08/16 09:58:00;;;;;;;1.23;1.23;;;22.40;99.90;;;;;;4924822;29;20486;-71
2023/08/16 10:00:30;;;;;;;1.07;1.07;;;22.40;99.90;;;;;;4928671;29;20467;-71
2023/08/16 10:02:58;;;;;;;1.20;1.20;;;22.50;99.90;;;;;;4929521;29;20490;-70
2023/08/16 10:05:26;;;;;;;2.80;1.33;;;22.50;99.90;;;;;;4931824;29;21303;-71
2023/08/16 10:07:55;;;;;;;2.30;1.20;;;22.60;99.90;;;;;;4933664;29;20564;-71
2023/08/16 10:10:22;;;;;;;3.30;1.30;;;22.60;99.90;;;;;;4929837;29;20476;-70
2023/08/16 10:12:49;;;;;;;1.00;1.00;;;22.50;99.90;;;;;;4930634;29;20506;-71
2023/08/16 10:15:16;;;;;;;1.10;1.10;;;22.50;99.90;;;;;;4951112;23;20562;-66
2023/08/16 10:17:44;;;;;;;1.30;1.30;;;22.60;99.90;;;;;;4933035;29;20493;-67
2023/08/16 10:20:18;;;;;;;1.50;1.40;;;22.60;99.90;;;;;;4928699;29;20472;-68
2023/08/16 10:22:48;;;;;;;1.10;1.10;;;22.70;99.90;;;;;;4932326;29;20953;-66
2023/08/16 10:25:17;;;;;;;1.67;1.67;;;22.70;99.90;;;;;;4925993;29;20482;-67
2023/08/16 10:27:45;;;;;;;1.20;1.20;;;22.70;99.90;;;;;;4925759;29;20467;-67
2023/08/16 10:30:20;;;;;;;1.50;1.50;;;22.80;99.90;;;;;;4930449;29;20492;-67
2023/08/16 10:32:48;;;;;;;1.60;1.50;;;22.80;99.90;;;;;;4933870;29;20486;-66
2023/08/16 10:35:17;;;;;;;1.37;1.37;;;22.80;99.90;;;;;;4925489;29;20494;-67
2023/08/16 10:37:46;;;;;;;1.73;1.63;;;22.90;99.90;;;;;;4927494;29;20467;-67
2023/08/16 10:40:19;;;;;;;3.20;1.30;;;22.90;99.90;;;;;;4933120;29;20471;-67
2023/08/16 10:42:52;;;;;;;2.50;1.43;;;23.00;99.90;;;;;;4933035;29;20842;-67
2023/08/16 10:45:26;;;;;;;1.57;1.57;;;23.00;99.90;;;;;;4931972;29;20523;-67
2023/08/16 10:47:53;;;;;;;1.90;1.73;;;23.10;99.90;;;;;;4933383;29;20472;-67
2023/08/16 10:50:21;;;;;;;1.60;1.60;;;23.10;99.90;;;;;;4933879;29;20870;-67
2023/08/16 10:52:49;;;;;;;2.00;1.80;;;23.20;99.90;;;;;;4936754;29;20466;-68
2023/08/16 10:55:24;;;;;;;1.73;1.60;;;23.30;99.90;;;;;;4935718;29;20500;-68
2023/08/16 10:57:52;;;;;;;1.67;1.67;;;23.50;99.90;;;;;;4937599;29;20548;-67
2023/08/16 11:00:20;;;;;;;5.30;1.33;;;23.40;99.90;;;;;;4931020;29;20474;-68
2023/08/16 11:02:49;;;;;;;1.50;1.50;;;23.30;99.90;;;;;;4931569;29;20908;-67
2023/08/16 11:05:19;;;;;;;4.07;1.23;;;23.40;99.90;;;;;;4940727;28;20898;-68
2023/08/16 11:07:47;;;;;;;1.60;1.60;;;23.50;99.90;;;;;;4935725;29;20536;-67
2023/08/16 11:10:14;;;;;;;2.00;1.90;;;23.40;99.90;;;;;;4940789;29;20471;-66
2023/08/16 11:12:41;;;;;;;1.30;1.30;;;23.00;99.90;;;;;;4935634;29;20465;-67
2023/08/16 11:15:09;;;;;;;1.37;1.33;;;23.00;99.90;;;;;;4932577;29;20576;-67
2023/08/16 11:17:42;;;;;;;2.03;1.80;;;23.30;99.90;;;;;;4935097;29;20477;-68
2023/08/16 11:20:11;;;;;;;2.23;1.17;;;23.30;99.90;;;;;;4936068;29;20539;-68
2023/08/16 11:22:37;;;;;;;1.67;1.40;;;23.40;99.90;;;;;;4933591;29;20478;-68
2023/08/16 11:25:06;;;;;;;1.93;1.40;;;23.50;99.90;;;;;;4933124;29;21010;-68
2023/08/16 11:27:33;;;;;;;1.57;1.23;;;23.50;99.90;;;;;;4934913;29;20482;-67
2023/08/16 11:30:01;;;;;;;1.07;1.07;;;23.70;99.90;;;;;;4935036;29;20818;-69
2023/08/16 11:32:33;;;;;;;1.53;1.43;;;23.70;99.90;;;;;;4935695;29;20469;-68
2023/08/16 11:35:00;;;;;;;2.73;1.50;;;23.70;99.90;;;;;;4933642;29;20580;-68
2023/08/16 11:37:27;;;;;;;1.10;1.07;;;23.70;99.90;;;;;;4931122;29;20474;-67
2023/08/16 11:39:59;;;;;;;2.10;1.20;;;23.80;99.90;;;;;;4938269;29;20469;-67
2023/08/16 11:42:28;;;;;;;2.20;1.17;;;23.70;99.90;;;;;;4939036;29;20463;-67
2023/08/16 11:44:55;;;;;;;1.03;1.03;;;23.70;99.90;;;;;;4935307;29;20491;-68
2023/08/16 11:47:22;;;;;;;1.00;0.90;;;23.80;99.90;;;;;;4934370;29;20475;-68
2023/08/16 11:49:50;;;;;;;1.30;1.30;;;23.90;99.90;;;;;;4935845;29;20491;-67
2023/08/16 11:52:21;;;;;;;2.00;1.80;;;24.00;99.90;;;;;;4935915;29;20817;-67
2023/08/16 11:54:48;;;;;;;1.40;1.40;;;24.10;99.90;;;;;;4936128;29;20925;-68
2023/08/16 11:57:19;;;;;;;1.17;1.17;;;24.10;99.90;;;;;;4933851;29;20465;-67
2023/08/16 11:59:54;;;;;;;1.07;1.07;;;24.20;99.90;;;;;;4934233;29;20488;-68
2023/08/16 12:02:22;;;;;;;1.57;1.20;;;24.10;99.90;;;;;;4935393;29;20479;-67
2023/08/16 12:04:49;;;;;;;1.17;1.17;;;24.20;99.90;;;;;;4935284;29;20486;-67
2023/08/16 12:07:15;;;;;;;1.20;1.10;;;24.20;99.90;;;;;;4935774;29;20474;-69
2023/08/16 12:09:42;;;;;;;0.97;0.97;;;24.20;99.90;;;;;;4933394;29;20541;-68
2023/08/16 12:12:11;;;;;;;0.90;0.90;;;24.10;99.90;;;;;;4934320;29;20982;-68
2023/08/16 12:14:37;;;;;;;1.20;1.20;;;24.20;99.90;;;;;;4935478;29;20925;-68
2023/08/16 12:17:06;;;;;;;1.33;1.23;;;24.40;99.90;;;;;;4930891;29;20479;-66
2023/08/16 12:19:32;;;;;;;1.20;1.20;;;24.30;99.90;;;;;;4933526;29;20988;-67
2023/08/16 12:21:59;;;;;;;1.00;1.00;;;24.30;99.90;;;;;;4935634;29;20487;-68
2023/08/16 12:24:26;;;;;;;1.13;1.13;;;24.40;99.90;;;;;;4933169;29;20477;-67
2023/08/16 12:26:52;;;;;;;1.43;1.30;;;24.40;99.90;;;;;;4935430;29;20467;-67
2023/08/16 12:29:19;;;;;;;1.10;1.10;;;24.50;99.90;;;;;;4933278;29;20470;-67
2023/08/16 12:31:46;;;;;;;0.80;0.80;;;24.60;99.90;;;;;;4934960;29;20496;-67
2023/08/16 12:34:14;;;;;;;0.80;0.80;;;24.60;99.90;;;;;;4928879;29;20496;-68
2023/08/16 12:36:40;;;;;;;1.27;1.27;;;24.60;99.90;;;;;;4933885;29;20497;-68
2023/08/16 12:39:07;;;;;;;1.10;1.00;;;24.60;99.90;;;;;;4932543;29;20546;-68
2023/08/16 12:41:34;;;;;;;1.27;1.17;;;24.70;99.90;;;;;;4927705;29;20479;-68
2023/08/16 12:44:03;;;;;;;1.50;1.40;;;24.60;99.90;;;;;;4932627;29;20468;-67
2023/08/16 12:46:29;;;;;;;1.10;1.10;;;24.40;99.90;;;;;;4933883;29;20500;-66
2023/08/16 12:48:56;;;;;;;1.10;1.10;;;24.40;99.90;;;;;;4935365;29;20900;-68
2023/08/16 12:51:24;;;;;;;1.13;1.13;;;24.40;99.90;;;;;;4934639;29;20477;-69
2023/08/16 12:53:51;;;;;;;1.00;1.00;;;24.40;99.90;;;;;;4932858;29;20471;-67
2023/08/16 12:56:18;;;;;;;0.97;0.97;;;24.30;99.90;;;;;;4933051;29;20489;-68
2023/08/16 12:58:44;;;;;;;1.27;1.17;;;24.20;99.90;;;;;;4934884;29;21169;-68
2023/08/16 13:01:11;;;;;;;1.23;1.23;;;24.10;99.90;;;;;;4934063;29;20473;-68
2023/08/16 13:03:38;;;;;;;1.40;1.40;;;24.10;99.90;;;;;;4932651;29;20483;-68
2023/08/16 13:06:05;;;;;;;4.10;1.10;;;24.10;99.90;;;;;;4932950;29;21015;-68
2023/08/16 13:08:33;;;;;;;1.30;1.20;;;24.00;99.90;;;;;;4934964;29;20462;-68
2023/08/16 13:11:00;;;;;;;1.47;1.37;;;24.00;99.90;;;;;;4934409;29;20820;-68
2023/08/16 13:13:26;;;;;;;0.90;0.90;;;24.10;99.90;;;;;;4933137;29;20478;-68
2023/08/16 13:15:53;;;;;;;2.67;1.10;;;24.10;99.90;;;;;;4932812;29;20496;-69
2023/08/16 13:18:21;;;;;;;1.13;0.77;;;24.30;99.90;;;;;;4934616;29;20835;-68
2023/08/16 13:20:47;;;;;;;1.17;1.17;;;24.30;99.90;;;;;;4931090;29;20498;-69
2023/08/16 13:23:14;;;;;;;2.37;1.20;;;24.50;99.90;;;;;;4933052;29;20470;-69
2023/08/16 13:25:42;;;;;;;1.10;1.10;;;24.60;99.90;;;;;;4931881;29;20483;-69
2023/08/16 13:28:08;;;;;;;1.60;1.23;;;24.70;99.90;;;;;;4930829;29;20971;-68
2023/08/16 13:30:38;;;;;;;5.30;1.30;;;24.80;99.90;;;;;;4933078;29;20466;-68
2023/08/16 13:33:07;;;;;;;1.07;1.07;;;24.90;99.90;;;;;;4933822;29;20470;-68
2023/08/16 13:35:34;;;;;;;1.03;1.03;;;24.80;99.90;;;;;;4931594;29;21053;-69
2023/08/16 13:38:01;;;;;;;1.00;1.00;;;24.90;99.90;;;;;;4932241;29;20940;-68
2023/08/16 13:40:28;;;;;;;0.87;0.87;;;24.80;99.90;;;;;;4931381;29;20472;-69
2023/08/16 13:42:57;;;;;;;0.90;0.90;;;24.80;99.90;;;;;;4931878;29;20470;-68
2023/08/16 13:45:24;;;;;;;1.00;1.00;;;24.80;99.90;;;;;;4931835;29;20482;-68
2023/08/16 13:47:50;;;;;;;0.80;0.80;;;24.70;99.90;;;;;;4924870;29;20485;-68
2023/08/16 13:50:17;;;;;;;1.90;1.00;;;24.50;99.90;;;;;;4934123;29;20463;-68
2023/08/16 13:52:44;;;;;;;0.87;0.87;;;24.60;99.90;;;;;;4934151;29;20470;-68
2023/08/16 13:55:11;;;;;;;1.10;1.10;;;24.70;99.90;;;;;;4931296;29;20496;-68
2023/08/16 13:57:38;;;;;;;1.30;1.30;;;24.80;99.90;;;;;;4931961;29;21005;-68
2023/08/16 14:00:09;;;;;;;0.90;0.90;;;24.80;99.90;;;;;;4933711;29;20819;-68
2023/08/16 14:02:36;;;;;;;0.83;0.83;;;25.00;99.90;;;;;;4933012;29;20507;-69
2023/08/16 14:05:03;;;;;;;1.27;1.27;;;25.00;99.90;;;;;;4933475;29;20539;-68
2023/08/16 14:07:30;;;;;;;1.17;1.00;;;24.80;99.90;;;;;;4934464;29;20465;-68
2023/08/16 14:09:57;;;;;;;1.50;1.50;;;24.60;99.90;;;;;;4933299;29;20506;-68
2023/08/16 14:12:24;;;;;;;0.80;0.80;;;24.60;99.90;;;;;;4934272;29;20483;-68
2023/08/16 14:14:50;;;;;;;0.70;0.70;;;24.70;99.90;;;;;;4934014;29;20496;-68
2023/08/16 14:17:19;;;;;;;1.30;0.97;;;24.60;99.90;;;;;;4924591;29;20474;-68
2023/08/16 14:19:45;;;;;;;0.90;0.90;;;24.50;99.90;;;;;;4920565;29;20481;-68
2023/08/16 14:22:12;;;;;;;2.13;1.23;;;24.50;99.90;;;;;;4918338;29;20462;-68
2023/08/16 14:24:39;;;;;;;0.67;0.67;;;24.50;99.90;;;;;;4917521;29;20498;-68
2023/08/16 14:27:05;;;;;;;0.83;0.83;;;24.50;99.90;;;;;;4924952;29;20477;-68
2023/08/16 14:29:32;;;;;;;4.43;1.27;;;24.50;99.90;;;;;;4928815;29;20474;-69
2023/08/16 14:31:59;;;;;;;0.93;0.93;;;24.30;99.90;;;;;;4928675;29;20464;-69
2023/08/16 14:34:27;;;;;;;1.10;1.10;;;24.30;99.90;;;;;;4926282;29;21006;-69
2023/08/16 14:36:54;;;;;;;1.60;1.50;;;24.30;99.90;;;;;;4928977;29;20842;-69
2023/08/16 14:39:20;;;;;;;0.97;0.97;;;24.20;99.90;;;;;;4925394;29;20476;-69
2023/08/16 14:41:47;;;;;;;1.00;1.00;;;24.30;99.90;;;;;;4930373;29;20472;-69
2023/08/16 14:44:14;;;;;;;1.30;1.20;;;24.30;99.90;;;;;;4927113;29;20809;-68
2023/08/16 14:46:40;;;;;;;1.10;1.10;;;24.40;99.90;;;;;;4929617;29;20491;-68
2023/08/16 14:49:07;;;;;;;0.77;0.77;;;24.30;99.90;;;;;;4936726;29;20468;-69
2023/08/16 14:51:35;;;;;;;1.33;1.23;;;24.30;99.90;;;;;;4936762;29;20460;-69
2023/08/16 14:54:02;;;;;;;1.00;1.00;;;24.30;99.90;;;;;;4935751;29;20477;-69
2023/08/16 14:56:29;;;;;;;1.00;1.00;;;24.20;99.90;;;;;;4933711;29;20490;-69
2023/08/16 14:58:56;;;;;;;1.23;1.10;;;24.10;99.90;;;;;;4935607;29;20486;-69
2023/08/16 15:01:23;;;;;;;0.80;0.80;;;24.10;99.90;;;;;;4936725;29;20481;-69
2023/08/16 15:03:50;;;;;;;1.17;1.07;;;24.10;99.90;;;;;;4936574;29;20955;-69
2023/08/16 15:06:16;;;;;;;1.23;1.23;;;24.00;99.90;;;;;;4935887;29;20482;-69
2023/08/16 15:08:44;;;;;;;0.80;0.80;;;24.00;99.90;;;;;;4935388;29;21113;-69
2023/08/16 15:11:15;;;;;;;1.00;0.90;;;24.10;99.90;;;;;;4931408;29;20466;-70
2023/08/16 15:13:42;;;;;;;0.70;0.70;;;24.20;99.90;;;;;;4935865;29;20489;-69
2023/08/16 15:16:09;;;;;;;1.13;1.13;;;24.30;99.90;;;;;;4934982;29;21004;-70
2023/08/16 15:18:35;;;;;;;1.57;1.57;;;24.30;99.90;;;;;;4934972;29;20485;-70
2023/08/16 15:21:02;;;;;;;0.93;0.90;;;24.30;99.90;;;;;;4933008;29;20474;-70
2023/08/16 15:23:30;;;;;;;1.40;1.33;;;24.30;99.90;;;;;;4934275;29;20466;-68
2023/08/16 15:25:58;;;;;;;0.80;0.80;;;24.30;99.90;;;;;;4941125;29;20495;-68
2023/08/16 15:28:25;;;;;;;1.17;1.17;;;24.40;99.90;;;;;;4938346;29;21153;-69
2023/08/16 15:30:56;;;;;;;1.73;1.70;;;24.50;99.90;;;;;;4929776;29;20467;-68
2023/08/16 15:33:23;;;;;;;1.20;1.20;;;24.50;99.90;;;;;;4936592;29;20558;-70
2023/08/16 15:35:50;;;;;;;2.23;1.20;;;24.60;99.90;;;;;;4941543;29;20546;-70
2023/08/16 15:38:38;;;;;;;1.13;1.13;;;24.70;99.90;;;;;;4929589;29;20470;-69
2023/08/16 15:41:06;;;;;;;1.40;1.40;;;24.70;99.90;;;;;;4932090;29;20554;-69
2023/08/16 15:43:33;;;;;;;0.93;0.93;;;24.70;99.90;;;;;;4937274;29;20868;-69
2023/08/16 15:46:00;;;;;;;1.03;1.03;;;24.60;99.90;;;;;;4941881;28;20567;-69
2023/08/16 15:48:27;;;;;;;1.43;1.43;;;24.60;99.90;;;;;;4943854;29;20460;-68
2023/08/16 15:50:55;;;;;;;1.80;1.67;;;24.50;99.90;;;;;;4935563;29;20834;-68
2023/08/16 15:53:22;;;;;;;2.50;2.40;;;24.40;99.90;;;;;;4943792;29;20472;-68
2023/08/16 15:55:49;;;;;;;2.10;2.00;;;24.40;99.90;;;;;;4935913;29;21012;-68
2023/08/16 15:58:17;;;;;;;5.93;1.47;;;24.40;99.90;;;;;;4935480;29;20476;-68
2023/08/16 16:00:45;;;;;;;1.00;1.00;;;24.30;99.90;;;;;;4940906;29;20486;-68
2023/08/16 16:03:12;;;;;;;1.27;1.27;;;24.30;99.90;;;;;;4947097;29;20489;-68
2023/08/16 16:05:39;;;;;;;1.60;1.17;;;24.30;99.90;;;;;;4936590;29;20488;-68
2023/08/16 16:08:06;;;;;;;3.90;1.50;;;24.20;99.90;;;;;;4943670;29;20459;-68
2023/08/16 16:10:32;;;;;;;1.00;1.00;;;24.20;99.90;;;;;;4938915;29;20473;-68
2023/08/16 16:13:02;;;;;;;0.90;0.90;;;24.30;99.90;;;;;;4934318;29;20474;-68
2023/08/16 16:15:30;;;;;;;1.80;1.70;;;24.30;99.90;;;;;;4954865;23;20840;-71
2023/08/16 16:17:56;;;;;;;3.27;3.17;;;24.30;99.90;;;;;;4941765;29;20475;-72
2023/08/16 16:20:23;;;;;;;3.30;3.10;;;24.30;99.90;;;;;;4933873;29;20469;-68
2023/08/16 16:22:53;;;;;;;6.67;6.03;;;24.20;99.90;;;;;;4934616;29;20470;-69
2023/08/16 16:25:20;;;;;;;3.47;2.90;;;24.10;99.90;;;;;;4941632;29;20521;-69
2023/08/16 16:27:46;;;;;;;2.13;1.87;;;24.00;99.90;;;;;;4934602;29;20467;-69
2023/08/16 16:30:13;;;;;;;1.00;1.00;;;24.00;99.90;;;;;;4933112;29;20465;-69
2023/08/16 16:32:43;;;;;;;1.50;1.07;;;23.90;99.90;;;;;;4930299;29;20502;-68
2023/08/16 16:35:10;;;;;;;1.90;1.20;;;23.70;99.90;;;;;;4930283;29;20989;-69
2023/08/16 16:37:37;;;;;;;0.80;0.80;;;23.70;99.90;;;;;;4933299;29;20875;-69
2023/08/16 16:40:04;;;;;;;0.90;0.90;;;23.60;99.90;;;;;;4930524;29;22196;-69
2023/08/16 16:42:31;;;;;;;1.00;1.00;;;23.50;99.90;;;;;;4933882;29;20477;-69
2023/08/16 16:44:58;;;;;;;2.00;1.00;;;23.20;99.90;;;;;;4931943;29;20492;-69
2023/08/16 16:47:24;;;;;;;1.20;1.20;;;23.20;99.90;;;;;;4933065;29;21424;-68
2023/08/16 16:49:53;;;;;;;0.77;0.77;;;23.20;99.90;;;;;;4930006;29;20503;-69